Flight Track Log - Related Links

Times and Time Zones

All times are in EDT time to prevent confusion due to time zone crossing. See the AAL963 flight status page for this flight to view local times or setup timezone preferences in your user account.


Time Position Orientation Groundspeed Altitude Reporting Facility
EDT Latitude Longitude Course Direction KTS MPH feet Rate Location/Type
Fri 09:11:44 PM 32.8750 -97.0520 185° South 186 214 1,500  Level FlightAware ADS-B
Fri 09:12:08 PM 32.8560 -97.0570 192° South 194 223 2,400 1,636 Climbing FlightAware ADS-B
Fri 09:12:28 PM 32.8370 -97.0640 197° South 224 258 2,700 1,385 Climbing FlightAware ADS-B
Fri 09:12:47 PM 32.8170 -97.0710 196° South 237 273 3,300 2,400 Climbing FlightAware ADS-B
Fri 09:13:08 PM 32.7950 -97.0780 195° South 236 272 4,300 2,923 Climbing FlightAware ADS-B
Fri 09:13:26 PM 32.7740 -97.0810 187° South 246 283 5,200 3,158 Climbing FlightAware ADS-B
Fri 09:13:46 PM 32.7550 -97.0800 177° South 247 284 6,300 3,333 Climbing FlightAware ADS-B
Fri 09:14:11 PM 32.7230 -97.0720 168° South 265 305 7,700 3,064 Climbing FlightAware ADS-B
Fri 09:14:33 PM 32.6970 -97.0600 159° South 277 319 8,700 2,526 Climbing FlightAware ADS-B
Fri 09:14:49 PM 32.6780 -97.0500 156° South 288 331 9,300 2,426 Climbing FlightAware ADS-B
Fri 09:15:20 PM 32.6430 -97.0290 153° Southeast 298 343 10,600 1,588 Climbing FlightAware ADS-B
Fri 09:15:57 PM 32.5900 -96.9970 153° Southeast 359 413 11,100 1,644 Climbing FlightAware ADS-B
Fri 09:16:33 PM 32.5340 -96.9640 154° Southeast 376 433 12,600 2,535 Climbing FlightAware ADS-B
Fri 09:17:08 PM 32.4800 -96.9310 153° Southeast 388 447 14,100 2,677 Climbing FlightAware ADS-B
Fri 09:17:38 PM 32.4290 -96.9010 154° Southeast 397 457 15,500 2,696 Climbing FlightAware ADS-B
Fri 09:18:17 PM 32.3650 -96.8630 153° Southeast 403 464 17,200 2,480 Climbing FlightAware ADS-B
Fri 09:18:53 PM 32.3020 -96.8260 154° Southeast 410 472 18,600 2,282 Climbing FlightAware ADS-B
Fri 09:19:28 PM 32.2420 -96.7990 159° South 413 475 19,900 2,091 Climbing FlightAware ADS-B
Fri 09:19:59 PM 32.1830 -96.7770 162° South 422 486 20,900 1,775 Climbing FlightAware ADS-B
Fri 09:20:39 PM 32.1070 -96.7480 162° South 431 496 22,000 1,667 Climbing FlightAware ADS-B
Fri 09:21:11 PM 32.0470 -96.7250 162° South 436 502 22,900 1,565 Climbing FlightAware ADS-B
Fri 09:21:48 PM 31.9750 -96.6980 162° South 440 506 23,800 1,304 Climbing FlightAware ADS-B
Fri 09:22:20 PM 31.9140 -96.6750 162° South 448 516 24,400 1,108 Climbing FlightAware ADS-B
Fri 09:22:53 PM 31.8490 -96.6500 162° South 459 528 25,000 1,099 Climbing FlightAware ADS-B
Fri 09:23:31 PM 31.7720 -96.6170 160° South 467 537 25,700 1,135 Climbing FlightAware ADS-B
Fri 09:24:07 PM 31.6960 -96.5860 161° South 474 545 26,400 1,315 Climbing FlightAware ADS-B
Fri 09:24:44 PM 31.6180 -96.5540 161° South 475 547 27,300 1,217 Climbing FlightAware ADS-B
Fri 09:25:16 PM 31.5520 -96.5270 161° South 482 555 27,800 1,000 Climbing FlightAware ADS-B
Fri 09:25:50 PM 31.4790 -96.4980 161° South 485 558 28,400 1,114 Climbing FlightAware ADS-B
Fri 09:26:26 PM 31.4010 -96.4700 163° South 488 562 29,100 962 Climbing FlightAware ADS-B
Fri 09:27:36 PM 31.2510 -96.4140 162° South 497 572 30,100 1,030 Climbing FlightAware ADS-B
Fri 09:28:05 PM 31.1880 -96.3850 159° South 495 570 30,800 1,080 Climbing FlightAware ADS-B
Fri 09:28:26 PM 31.1530 -96.3550 144° Southeast 497 572 31,000 324 Climbing FlightAware ADS-B
Fri 09:28:42 PM 31.1260 -96.3200 132° Southeast 497 572 31,000  Level FlightAware ADS-B
Fri 09:29:14 PM 31.0840 -96.2520 126° Southeast 496 571 31,000  Level FlightAware ADS-B
Fri 09:29:50 PM 31.0350 -96.1710 125° Southeast 496 571 31,000  Level FlightAware ADS-B
Fri 09:30:29 PM 30.9820 -96.0850 126° Southeast 495 570 31,000  Level FlightAware ADS-B
Fri 09:31:06 PM 30.9330 -96.0050 126° Southeast 495 570 31,000  Level FlightAware ADS-B
Fri 09:31:42 PM 30.8860 -95.9290 126° Southeast 495 570 31,000  Level FlightAware ADS-B
Fri 09:32:14 PM 30.8440 -95.8610 126° Southeast 495 570 31,000  Level FlightAware ADS-B
Fri 09:32:53 PM 30.7930 -95.7790 126° Southeast 495 570 31,000  Level FlightAware ADS-B
Fri 09:33:32 PM 30.7420 -95.6970 126° Southeast 496 571 31,000  Level FlightAware ADS-B
Fri 09:34:10 PM 30.6870 -95.6090 126° Southeast 497 572 31,000  Level FlightAware ADS-B
Fri 09:34:42 PM 30.6450 -95.5420 126° Southeast 497 572 31,000  Level FlightAware ADS-B
Fri 09:35:18 PM 30.5970 -95.4650 126° Southeast 497 572 31,000  Level FlightAware ADS-B
Fri 09:35:54 PM 30.5470 -95.3860 126° Southeast 498 573 31,000  Level FlightAware ADS-B
Fri 09:36:26 PM 30.5030 -95.3160 126° Southeast 498 573 31,000  Level FlightAware ADS-B
Fri 09:37:39 PM 30.4030 -95.1570 126° Southeast 497 572 31,000  Level FlightAware ADS-B
Fri 09:38:12 PM 30.3600 -95.0880 126° Southeast 497 572 31,000  Level FlightAware ADS-B
Fri 09:38:47 PM 30.3120 -95.0130 127° Southeast 497 572 31,000  Level FlightAware ADS-B
Fri 09:39:24 PM 30.2610 -94.9330 126° Southeast 497 572 31,000  Level FlightAware ADS-B
Fri 09:40:00 PM 30.2070 -94.8600 131° Southeast 497 572 31,000  Level FlightAware ADS-B
Fri 09:40:27 PM 30.1556 -94.8060 138° Southeast 498 573 31,000  Level FlightAware ADS-B (EGLF / FAB)
Fri 09:40:57 PM 30.1086 -94.7596 139° Southeast 499 574 31,000  Level FlightAware ADS-B (EGLF / FAB)
Fri 09:41:43 PM 30.0300 -94.6820 140° Southeast 499 574 31,000  Level FlightAware ADS-B
Fri 09:42:19 PM 29.9630 -94.6160 140° Southeast 498 573 31,000  Level FlightAware ADS-B
Fri 09:42:52 PM 29.9090 -94.5620 139° Southeast 498 573 31,000  Level FlightAware ADS-B
Fri 09:43:29 PM 29.8430 -94.4970 139° Southeast 498 573 31,000  Level FlightAware ADS-B
Fri 09:43:36 PM 29.8236 -94.4786 140° Southeast 499 574 31,000  Level FlightAware ADS-B (EGLF / FAB)
Fri 09:44:38 PM 29.7210 -94.3780 140° Southeast 498 573 31,000  Level FlightAware ADS-B
Fri 09:45:17 PM 29.6471 -94.3053 139° Southeast 498 573 31,000  Level FlightAware ADS-B (EGLF / FAB)
Fri 09:45:49 PM 29.5950 -94.2550 140° Southeast 497 572 31,000  Level FlightAware ADS-B
Fri 09:46:15 PM 29.5448 -94.2052 139° Southeast 497 572 31,000  Level FlightAware ADS-B (EGLF / FAB)
Fri 09:46:54 PM 29.4810 -94.1430 140° Southeast 497 572 31,000  Level FlightAware ADS-B
Fri 09:47:32 PM 29.4250 -94.0870 139° Southeast 497 572 31,000  Level FlightAware ADS-B
Fri 09:48:08 PM 29.3720 -94.0340 139° Southeast 497 572 31,000  Level FlightAware ADS-B
Fri 09:48:45 PM 29.3180 -93.9800 139° Southeast 497 572 31,000  Level FlightAware ADS-B
Fri 09:49:21 PM 29.2650 -93.9270 139° Southeast 497 572 31,000  Level FlightAware ADS-B
Fri 09:49:57 PM 29.2120 -93.8740 139° Southeast 497 572 31,000  Level FlightAware ADS-B
Fri 09:50:33 PM 29.1580 -93.8210 139° Southeast 497 572 31,000  Level FlightAware ADS-B
Fri 09:51:09 PM 29.1050 -93.7680 139° Southeast 497 572 31,000  Level FlightAware ADS-B
Fri 09:51:45 PM 29.0520 -93.7150 139° Southeast 497 572 31,000  Level FlightAware ADS-B
Fri 09:52:21 PM 28.9990 -93.6630 139° Southeast 497 572 31,000  Level FlightAware ADS-B
Fri 09:52:57 PM 28.9460 -93.6100 139° Southeast 497 572 31,000  Level FlightAware ADS-B
Fri 09:53:33 PM 28.8930 -93.5570 139° Southeast 497 572 31,000  Level FlightAware ADS-B
Fri 09:54:10 PM 28.8380 -93.5030 139° Southeast 497 572 31,000  Level FlightAware ADS-B
Fri 09:54:46 PM 28.7850 -93.4500 139° Southeast 497 572 31,000  Level FlightAware ADS-B
Fri 09:55:22 PM 28.7320 -93.3980 139° Southeast 497 572 31,000  Level FlightAware ADS-B
Fri 09:55:59 PM 28.6780 -93.3440 139° Southeast 497 572 31,000  Level FlightAware ADS-B
Fri 09:56:33 PM 28.6270 -93.2940 139° Southeast 497 572 31,000  Level FlightAware ADS-B
Fri 09:57:35 PM 28.3642 -93.0625 139° Southeast 495 570 31,000 -49 Level Houston Center
Fri 09:58:36 PM 28.2581 -92.9611 140° Southeast 498 573 30,900  Descending Houston Center
Fri 09:59:37 PM 28.1517 -92.8603 140° Southeast 499 574 31,000  Climbing Houston Center
Fri 10:00:38 PM 28.0458 -92.7589 140° Southeast 498 573 30,900  Descending Houston Center
Fri 10:01:39 PM 27.9400 -92.6608 141° Southeast 495 570 31,000  Climbing Houston Center
Fri 10:02:40 PM 27.8317 -92.5711 144° Southeast 491 565 30,900  Descending Houston Center
Fri 10:03:41 PM 27.7272 -92.4625 137° Southeast 499 574 31,000  Climbing Houston Center
Fri 10:04:42 PM 27.6200 -92.3625 140° Southeast 499 574 30,900  Descending Houston Center
Fri 10:05:43 PM 27.5131 -92.2631 140° Southeast 498 573 31,000 49 Climbing Houston Center
Fri 10:06:44 PM 27.3844 -92.1442 141° Southeast 498 573 31,000  Level Houston Center
Fri 10:07:45 PM 27.2769 -92.0447 141° Southeast 500 575 31,000  Level Houston Center
Fri 10:08:46 PM 27.1697 -91.9444 140° Southeast 501 577 31,000  Level Houston Center
Fri 10:10:00 PM 27.0399 -91.8316 144° Southeast  Level FlightAware Approximate
Fri 10:17:00 PM 26.2778 -91.2263 145° Southeast  Level FlightAware Approximate
Fri 10:18:00 PM 26.1688 -91.1404 145° Southeast  Level FlightAware Approximate
Fri 10:19:00 PM 26.0597 -91.0547 145° Southeast  Level FlightAware Approximate
Fri 10:20:00 PM 25.9505 -90.9691 145° Southeast  Level FlightAware Approximate
Fri 10:21:00 PM 25.8414 -90.8837 145° Southeast  Level FlightAware Approximate
Fri 10:22:00 PM 25.7321 -90.7985 145° Southeast  Level FlightAware Approximate
Fri 10:23:00 PM 25.6229 -90.7134 145° Southeast  Level FlightAware Approximate
Fri 10:24:00 PM 25.5135 -90.6284 145° Southeast  Level FlightAware Approximate
Fri 10:25:00 PM 25.4041 -90.5436 145° Southeast  Level FlightAware Approximate
Fri 10:26:00 PM 25.2947 -90.4590 145° Southeast  Level FlightAware Approximate
Fri 10:27:00 PM 25.1852 -90.3745 145° Southeast  Level FlightAware Approximate
Fri 10:28:00 PM 25.0757 -90.2902 145° Southeast  Level FlightAware Approximate
Fri 10:29:00 PM 24.9661 -90.2060 145° Southeast  Level FlightAware Approximate
Fri 10:30:00 PM 24.8565 -90.1220 145° Southeast  Level FlightAware Approximate
Fri 10:31:00 PM 24.7468 -90.0381 145° Southeast  Level FlightAware Approximate
Fri 10:32:00 PM 24.6371 -89.9544 145° Southeast  Level FlightAware Approximate
Fri 10:33:00 PM 24.5274 -89.8708 145° Southeast  Level FlightAware Approximate
Fri 10:34:00 PM 24.4187 -89.7859 146° Southeast  Level FlightAware Approximate
Fri 10:35:00 PM 24.3077 -89.7046 146° Southeast  Level FlightAware Approximate
Fri 10:36:00 PM 24.1965 -89.6235 146° Southeast  Level FlightAware Approximate
Fri 10:37:00 PM 24.0854 -89.5424 146° Southeast  Level FlightAware Approximate
Fri 10:38:00 PM 23.9753 -89.4598 145° Southeast  Level FlightAware Approximate
Fri 10:39:00 PM 23.8656 -89.3765 145° Southeast  Level FlightAware Approximate
Fri 10:40:00 PM 23.7558 -89.2934 145° Southeast  Level FlightAware Approximate
Fri 10:40:54 PM 23.3750 -89.2490 145° Southeast 509 586 31,000  Level FlightAware ADS-B
Fri 10:41:00 PM 23.6461 -89.2104 145° Southeast  Level FlightAware Approximate
Fri 10:41:32 PM 23.3100 -89.1820 137° Southeast 509 586 31,000  Level FlightAware ADS-B
Fri 10:42:02 PM 23.2590 -89.1290 136° Southeast 507 583 31,000  Level FlightAware ADS-B
Fri 10:42:42 PM 23.1890 -89.0570 137° Southeast 506 582 31,000  Level FlightAware ADS-B
Fri 10:43:16 PM 23.1330 -88.9990 136° Southeast 507 583 31,000  Level FlightAware ADS-B
Fri 10:43:57 PM 23.0730 -88.9370 136° Southeast 507 583 31,000  Level FlightAware ADS-B
Fri 10:44:30 PM 23.0070 -88.8690 137° Southeast 505 581 31,000  Level FlightAware ADS-B
Fri 10:45:08 PM 22.9420 -88.8020 136° Southeast 505 581 31,000  Level FlightAware ADS-B
Fri 10:45:44 PM 22.8830 -88.7420 137° Southeast 505 581 31,000  Level FlightAware ADS-B
Fri 10:46:23 PM 22.8210 -88.6770 136° Southeast 505 581 31,000  Level FlightAware ADS-B
Fri 10:47:02 PM 22.7490 -88.6040 137° Southeast 505 581 31,000  Level FlightAware ADS-B
Fri 10:47:34 PM 22.6960 -88.5500 137° Southeast 505 581 31,000  Level FlightAware ADS-B
Fri 10:48:04 PM 22.6420 -88.4950 137° Southeast 505 581 31,000  Level FlightAware ADS-B
Fri 10:48:46 PM 22.5710 -88.4230 137° Southeast 505 581 31,000  Level FlightAware ADS-B
Fri 10:49:18 PM 22.5160 -88.3670 137° Southeast 506 582 31,000  Level FlightAware ADS-B
Fri 10:49:56 PM 22.4520 -88.3020 137° Southeast 507 583 31,000  Level FlightAware ADS-B
Fri 10:50:34 PM 22.3970 -88.2440 136° Southeast 507 583 31,000  Level FlightAware ADS-B
Fri 10:51:10 PM 22.3450 -88.1910 137° Southeast 507 583 31,000  Level FlightAware ADS-B
Fri 10:51:44 PM 22.2660 -88.1130 138° Southeast 507 583 31,000  Level FlightAware ADS-B
Fri 10:52:22 PM 22.2120 -88.0570 136° Southeast 507 583 31,000  Level FlightAware ADS-B
Fri 10:52:58 PM 22.1600 -88.0030 136° Southeast 507 583 31,000  Level FlightAware ADS-B
Fri 10:53:34 PM 22.1080 -87.9490 136° Southeast 507 583 31,000  Level FlightAware ADS-B
Fri 10:54:11 PM 22.0550 -87.8940 136° Southeast 507 583 31,000  Level FlightAware ADS-B
Fri 10:54:47 PM 22.0040 -87.8400 136° Southeast 507 583 31,000  Level FlightAware ADS-B
Fri 10:55:26 PM 21.8900 -87.7340 139° Southeast 503 579 31,000  Level FlightAware ADS-B
Fri 10:55:59 PM 21.8420 -87.6850 137° Southeast 503 579 31,000  Level FlightAware ADS-B
Fri 10:56:35 PM 21.7790 -87.6220 137° Southeast 503 579 31,000  Level FlightAware ADS-B
Fri 10:57:10 PM 21.7110 -87.5550 138° Southeast 503 579 31,000  Level FlightAware ADS-B
Fri 10:57:46 PM 21.6510 -87.4940 137° Southeast 503 579 31,000  Level FlightAware ADS-B
Fri 10:58:18 PM 21.5970 -87.4400 137° Southeast 504 580 31,000  Level FlightAware ADS-B
Fri 10:58:56 PM 21.5290 -87.3730 137° Southeast 504 580 31,000  Level FlightAware ADS-B
Fri 10:59:28 PM 21.4760 -87.3200 137° Southeast 504 580 31,000  Level FlightAware ADS-B
Fri 11:00:04 PM 21.4150 -87.2590 137° Southeast 504 580 31,000  Level FlightAware ADS-B
Fri 11:00:40 PM 21.3520 -87.1970 137° Southeast 505 581 31,000  Level FlightAware ADS-B
Fri 11:01:16 PM 21.2900 -87.1350 137° Southeast 505 581 31,000  Level FlightAware ADS-B
Fri 11:01:49 PM 21.2350 -87.0800 137° Southeast 503 579 31,000  Level FlightAware ADS-B
Fri 11:02:20 PM 21.1810 -87.0270 138° Southeast 503 579 31,000  Level FlightAware ADS-B
Fri 11:02:58 PM 21.1150 -86.9620 137° Southeast 504 580 31,000  Level FlightAware ADS-B
Fri 11:03:34 PM 21.0540 -86.9010 137° Southeast 505 581 31,000  Level FlightAware ADS-B
Fri 11:04:10 PM 20.9920 -86.8400 137° Southeast 504 580 31,000  Level FlightAware ADS-B
Fri 11:04:42 PM 20.9370 -86.7860 137° Southeast 503 579 31,000  Level FlightAware ADS-B
Fri 11:05:18 PM 20.8750 -86.7250 137° Southeast 504 580 31,000  Level FlightAware ADS-B
Fri 11:05:53 PM 20.8170 -86.6670 137° Southeast 503 579 31,000  Level FlightAware ADS-B
Fri 11:06:31 PM 20.7500 -86.6020 138° Southeast 503 579 31,000  Level FlightAware ADS-B
Fri 11:07:03 PM 20.6960 -86.5490 137° Southeast 503 579 31,000  Level FlightAware ADS-B
Fri 11:07:39 PM 20.6340 -86.4880 137° Southeast 503 579 31,000  Level FlightAware ADS-B
Fri 11:08:13 PM 20.5770 -86.4320 137° Southeast 505 581 31,000  Level FlightAware ADS-B
Fri 11:08:47 PM 20.5190 -86.3760 138° Southeast 504 580 31,000  Level FlightAware ADS-B
Fri 11:09:21 PM 20.4570 -86.3150 137° Southeast 505 581 31,000  Level FlightAware ADS-B
Fri 11:09:57 PM 20.4040 -86.2620 137° Southeast 505 581 31,000  Level FlightAware ADS-B
Fri 11:10:33 PM 20.3520 -86.2100 137° Southeast 505 581 31,000  Level FlightAware ADS-B
Fri 11:11:21 PM 20.2820 -86.1410 137° Southeast 505 581 31,000  Level FlightAware ADS-B
Fri 11:11:56 PM 20.1910 -86.0560 139° Southeast 503 579 31,000  Level FlightAware ADS-B
Fri 11:12:33 PM 20.1270 -85.9940 138° Southeast 503 579 31,000  Level FlightAware ADS-B
Fri 11:13:05 PM 20.0720 -85.9390 137° Southeast 503 579 31,000  Level FlightAware ADS-B
Fri 11:13:43 PM 20.0070 -85.8770 138° Southeast 503 579 31,000  Level FlightAware ADS-B
Fri 11:14:19 PM 19.9430 -85.8170 139° Southeast 502 578 31,000  Level FlightAware ADS-B
Fri 11:14:55 PM 19.8820 -85.7590 138° Southeast 502 578 31,000  Level FlightAware ADS-B
Fri 11:15:27 PM 19.8250 -85.7050 138° Southeast 503 579 31,000  Level FlightAware ADS-B
Fri 11:16:03 PM 19.7630 -85.6470 139° Southeast 502 578 31,000  Level FlightAware ADS-B
Fri 11:16:41 PM 19.6980 -85.5860 139° Southeast 502 578 31,000  Level FlightAware ADS-B
Fri 11:17:11 PM 19.6530 -85.5430 138° Southeast 502 578 31,000  Level FlightAware ADS-B
Fri 11:17:49 PM 19.5790 -85.4740 139° Southeast 502 578 31,000  Level FlightAware ADS-B
Fri 11:18:23 PM 19.5200 -85.4190 139° Southeast 503 579 31,000  Level FlightAware ADS-B
Fri 11:18:59 PM 19.4560 -85.3590 139° Southeast 503 579 31,000  Level FlightAware ADS-B
Fri 11:19:33 PM 19.3970 -85.3040 139° Southeast 503 579 31,000  Level FlightAware ADS-B
Fri 11:20:06 PM 19.3460 -85.2560 138° Southeast 502 578 31,000  Level FlightAware ADS-B
Fri 11:20:50 PM 19.2700 -85.1850 139° Southeast 503 579 31,000  Level FlightAware ADS-B
Fri 11:21:26 PM 19.2170 -85.1340 138° Southeast 503 579 31,000  Level FlightAware ADS-B
Fri 11:22:02 PM 19.1640 -85.0840 138° Southeast 503 579 31,000  Level FlightAware ADS-B
Fri 11:22:39 PM 19.1100 -85.0320 138° Southeast 503 579 31,000  Level FlightAware ADS-B
Fri 11:23:15 PM 19.0570 -84.9820 138° Southeast 503 579 31,000  Level FlightAware ADS-B
Fri 11:23:51 PM 19.0040 -84.9310 138° Southeast 503 579 31,000  Level FlightAware ADS-B
Fri 11:24:28 PM 18.9500 -84.8790 138° Southeast 503 579 31,000  Level FlightAware ADS-B
Fri 11:25:05 PM 18.8950 -84.8280 139° Southeast 503 579 31,000  Level FlightAware ADS-B
Fri 11:25:41 PM 18.8420 -84.7770 138° Southeast 503 579 31,000  Level FlightAware ADS-B
Fri 11:26:17 PM 18.7890 -84.7270 138° Southeast 503 579 31,000  Level FlightAware ADS-B
Fri 11:26:53 PM 18.7360 -84.6770 138° Southeast 503 579 31,000  Level FlightAware ADS-B
Fri 11:27:29 PM 18.6840 -84.6260 137° Southeast 503 579 31,000  Level FlightAware ADS-B
Fri 11:28:05 PM 18.6310 -84.5760 138° Southeast 503 579 31,000  Level FlightAware ADS-B
Fri 11:28:41 PM 18.5780 -84.5260 138° Southeast 503 579 31,000  Level FlightAware ADS-B
Fri 11:29:17 PM 18.5250 -84.4760 138° Southeast 503 579 31,000  Level FlightAware ADS-B
Fri 11:29:53 PM 18.4720 -84.4250 138° Southeast 503 579 31,000 27 Level FlightAware ADS-B
Fri 11:32:00 PM 18.3185 -84.1751 125° Southeast  Level FlightAware Approximate
Fri 11:33:00 PM 18.2425 -84.0595 125° Southeast  Level FlightAware Approximate
Fri 11:34:00 PM 18.1664 -83.9440 125° Southeast  Level FlightAware Approximate
Fri 11:35:00 PM 18.0903 -83.8286 125° Southeast  Level FlightAware Approximate
Fri 11:36:00 PM 18.0140 -83.7133 125° Southeast  Level FlightAware Approximate
Fri 11:37:00 PM 17.9347 -83.6009 135° Southeast  Level FlightAware Approximate
Fri 11:38:00 PM 17.8395 -83.5025 135° Southeast  Level FlightAware Approximate
Fri 11:39:00 PM 17.7442 -83.4043 136° Southeast  Level FlightAware Approximate
Fri 11:40:00 PM 17.6488 -83.3062 136° Southeast  Level FlightAware Approximate
Fri 11:41:00 PM 17.5535 -83.2082 136° Southeast  Level FlightAware Approximate
Fri 11:42:00 PM 17.4580 -83.1103 136° Southeast  Level FlightAware Approximate
Fri 11:43:00 PM 17.3624 -83.0127 139° Southeast  Level FlightAware Approximate
Fri 11:44:00 PM 17.2618 -82.9208 139° Southeast  Level FlightAware Approximate
Fri 11:45:00 PM 17.1612 -82.8289 139° Southeast  Level FlightAware Approximate
Fri 11:46:00 PM 17.0605 -82.7371 139° Southeast  Level FlightAware Approximate
Fri 11:47:00 PM 16.9598 -82.6454 139° Southeast  Level FlightAware Approximate
Fri 11:48:00 PM 16.8591 -82.5539 139° Southeast  Level FlightAware Approximate
Fri 11:49:00 PM 16.7583 -82.4624 139° Southeast  Level FlightAware Approximate
Fri 11:50:00 PM 16.6575 -82.3710 139° Southeast  Level FlightAware Approximate
Fri 11:51:00 PM 16.5567 -82.2797 139° Southeast  Level FlightAware Approximate
Fri 11:52:00 PM 16.4557 -82.1885 139° Southeast  Level FlightAware Approximate
Fri 11:53:00 PM 16.3631 -82.0884 134° Southeast  Level FlightAware Approximate
Fri 11:54:00 PM 16.2708 -81.9878 134° Southeast  Level FlightAware Approximate
Fri 11:55:00 PM 16.1785 -81.8874 134° Southeast  Level FlightAware Approximate
Fri 11:56:00 PM 16.0862 -81.7870 134° Southeast  Level FlightAware Approximate
Fri 11:57:00 PM 15.9938 -81.6867 134° Southeast  Level FlightAware Approximate
Fri 11:58:00 PM 15.9014 -81.5865 134° Southeast  Level FlightAware Approximate
Fri 11:59:00 PM 15.8089 -81.4864 134° Southeast  Level FlightAware Approximate
Sat 12:00:00 AM 15.7164 -81.3864 134° Southeast  Level FlightAware Approximate
Sat 12:01:00 AM 15.6238 -81.2865 134° Southeast  Level FlightAware Approximate
Sat 12:02:00 AM 15.5312 -81.1867 134° Southeast  Level FlightAware Approximate
Sat 12:03:00 AM 15.4385 -81.0869 134° Southeast  Level FlightAware Approximate
Sat 12:04:00 AM 15.3458 -80.9873 134° Southeast  Level FlightAware Approximate
Sat 12:05:00 AM 15.2531 -80.8877 134° Southeast  Level FlightAware Approximate
Sat 12:06:00 AM 15.1603 -80.7882 134° Southeast  Level FlightAware Approximate
Sat 12:07:00 AM 15.0675 -80.6888 134° Southeast  Level FlightAware Approximate
Sat 12:08:00 AM 14.9712 -80.5935 142° Southeast  Level FlightAware Approximate
Sat 12:09:00 AM 14.8658 -80.5087 142° Southeast  Level FlightAware Approximate
Sat 12:10:00 AM 14.7604 -80.4239 142° Southeast  Level FlightAware Approximate
Sat 12:11:00 AM 14.6549 -80.3393 142° Southeast  Level FlightAware Approximate
Sat 12:12:00 AM 14.5494 -80.2547 142° Southeast  Level FlightAware Approximate
Sat 12:13:00 AM 14.4439 -80.1702 142° Southeast  Level FlightAware Approximate
Sat 12:14:00 AM 14.3384 -80.0858 142° Southeast  Level FlightAware Approximate
Sat 12:15:00 AM 14.2328 -80.0015 142° Southeast  Level FlightAware Approximate
Sat 12:16:00 AM 14.1272 -79.9172 142° Southeast  Level FlightAware Approximate
Sat 12:17:00 AM 14.0216 -79.8331 142° Southeast  Level FlightAware Approximate
Sat 12:18:00 AM 13.9159 -79.7490 142° Southeast  Level FlightAware Approximate
Sat 12:19:00 AM 13.8103 -79.6648 142° Southeast  Level FlightAware Approximate
Sat 12:20:00 AM 13.7049 -79.5804 142° Southeast  Level FlightAware Approximate
Sat 12:21:00 AM 13.5996 -79.4961 142° Southeast  Level FlightAware Approximate
Sat 12:22:00 AM 13.4942 -79.4118 142° Southeast  Level FlightAware Approximate
Sat 12:23:00 AM 13.3887 -79.3276 142° Southeast  Level FlightAware Approximate
Sat 12:24:00 AM 13.2832 -79.2434 142° Southeast  Level FlightAware Approximate
Sat 12:25:00 AM 13.1778 -79.1594 142° Southeast  Level FlightAware Approximate
Sat 12:26:00 AM 13.0722 -79.0754 142° Southeast  Level FlightAware Approximate
Sat 12:27:00 AM 12.9667 -78.9915 142° Southeast  Level FlightAware Approximate
Sat 12:28:00 AM 12.8611 -78.9077 142° Southeast  Level FlightAware Approximate
Sat 12:29:00 AM 12.7555 -78.8239 142° Southeast  Level FlightAware Approximate
Sat 12:30:00 AM 12.6498 -78.7403 143° Southeast  Level FlightAware Approximate
Sat 12:31:00 AM 12.5438 -78.6571 143° Southeast  Level FlightAware Approximate
Sat 12:32:00 AM 12.4378 -78.5740 143° Southeast  Level FlightAware Approximate
Sat 12:33:00 AM 12.3317 -78.4910 143° Southeast  Level FlightAware Approximate
Sat 12:34:00 AM 12.2256 -78.4080 143° Southeast  Level FlightAware Approximate
Sat 12:35:00 AM 12.1195 -78.3251 143° Southeast  Level FlightAware Approximate
Sat 12:36:00 AM 12.0134 -78.2423 143° Southeast  Level FlightAware Approximate
Sat 12:37:00 AM 11.9073 -78.1595 143° Southeast  Level FlightAware Approximate
Sat 12:38:00 AM 11.8011 -78.0768 143° Southeast  Level FlightAware Approximate
Sat 12:39:00 AM 11.6949 -77.9941 143° Southeast  Level FlightAware Approximate
Sat 12:40:00 AM 11.5887 -77.9116 143° Southeast  Level FlightAware Approximate
Sat 12:41:00 AM 11.4824 -77.8290 143° Southeast  Level FlightAware Approximate
Sat 12:42:00 AM 11.3762 -77.7466 143° Southeast  Level FlightAware Approximate
Sat 12:43:00 AM 11.2699 -77.6642 143° Southeast  Level FlightAware Approximate
Sat 12:44:00 AM 11.1636 -77.5819 143° Southeast  Level FlightAware Approximate
Sat 12:44:25 AM 10.9270 -77.3860 143° Southeast 487 560 33,000  Level FlightAware ADS-B
Sat 12:45:00 AM 11.0578 -77.5000 143° Southeast  Level FlightAware Approximate
Sat 12:45:01 AM 10.8700 -77.3350 139° Southeast 499 574 33,000  Level FlightAware ADS-B
Sat 12:45:30 AM 10.8140 -77.2820 137° Southeast 493 567 33,000  Level FlightAware ADS-B
Sat 12:46:10 AM 10.7470 -77.2190 137° Southeast 493 567 33,000  Level FlightAware ADS-B
Sat 12:46:49 AM 10.6800 -77.1560 137° Southeast 558 642 33,000  Level FlightAware ADS-B
Sat 12:47:24 AM 10.6270 -77.1070 138° Southeast 497 572 33,000  Level FlightAware ADS-B
Sat 12:48:02 AM 10.5580 -77.0420 137° Southeast 491 565 33,000  Level FlightAware ADS-B
Sat 12:48:54 AM 10.4760 -76.9660 138° Southeast 420 483 33,000  Level FlightAware ADS-B
Sat 12:49:49 AM 10.3790 -76.8770 138° Southeast 496 571 33,000  Level FlightAware ADS-B
Sat 12:50:19 AM 10.3250 -76.8260 137° Southeast 495 570 33,000  Level FlightAware ADS-B
Sat 12:50:54 AM 10.2660 -76.7720 138° Southeast 496 571 33,000  Level FlightAware ADS-B
Sat 12:51:29 AM 10.2050 -76.7150 137° Southeast 496 571 33,000  Level FlightAware ADS-B
Sat 12:52:07 AM 10.1440 -76.6590 138° Southeast 489 563 33,000  Level FlightAware ADS-B
Sat 12:52:51 AM 10.0790 -76.5960 136° Southeast 489 563 33,000  Level FlightAware ADS-B
Sat 12:53:25 AM 10.0140 -76.5380 139° Southeast 490 564 33,000  Level FlightAware ADS-B
Sat 12:54:02 AM 9.9450 -76.4750 138° Southeast 491 565 33,000  Level FlightAware ADS-B
Sat 12:54:38 AM 9.8900 -76.4230 137° Southeast 490 564 33,000  Level FlightAware ADS-B
Sat 12:55:31 AM 9.8110 -76.3490 137° Southeast 491 565 33,000  Level FlightAware ADS-B
Sat 12:55:59 AM 9.7510 -76.2950 138° Southeast 495 570 33,000  Level FlightAware ADS-B
Sat 12:56:42 AM 9.6750 -76.2240 137° Southeast 497 572 33,000  Level FlightAware ADS-B
Sat 12:57:14 AM 9.6190 -76.1730 138° Southeast 498 573 33,000  Level FlightAware ADS-B
Sat 12:57:49 AM 9.5630 -76.1210 138° Southeast 497 572 33,000  Level FlightAware ADS-B
Sat 12:58:24 AM 9.5030 -76.0660 138° Southeast 498 573 33,000  Level FlightAware ADS-B
Sat 12:58:59 AM 9.4410 -76.0090 138° Southeast 498 573 33,000  Level FlightAware ADS-B
Sat 12:59:34 AM 9.3820 -75.9550 138° Southeast 496 571 33,000  Level FlightAware ADS-B
Sat 01:00:09 AM 9.3220 -75.8990 137° Southeast 495 570 33,000  Level FlightAware ADS-B
Sat 01:00:44 AM 9.2620 -75.8440 138° Southeast 495 570 33,000  Level FlightAware ADS-B
Sat 01:01:24 AM 9.1990 -75.7860 138° Southeast 495 570 33,000  Level FlightAware ADS-B
Sat 01:01:59 AM 9.1340 -75.7260 138° Southeast 496 571 33,000  Level FlightAware ADS-B
Sat 01:02:39 AM 9.0660 -75.6640 138° Southeast 495 570 33,000  Level FlightAware ADS-B
Sat 01:03:16 AM 9.0170 -75.6190 138° Southeast 495 570 33,000  Level FlightAware ADS-B
Sat 01:03:54 AM 8.9410 -75.5490 138° Southeast 496 571 33,000  Level FlightAware ADS-B
Sat 01:04:29 AM 8.8860 -75.4980 138° Southeast 497 572 33,000  Level FlightAware ADS-B
Sat 01:05:04 AM 8.8210 -75.4390 138° Southeast 494 568 33,000  Level FlightAware ADS-B
Sat 01:05:44 AM 8.7530 -75.3760 138° Southeast 493 567 33,000  Level FlightAware ADS-B
Sat 01:06:24 AM 8.6920 -75.3210 138° Southeast 492 566 33,000  Level FlightAware ADS-B
Sat 01:06:54 AM 8.6350 -75.2690 138° Southeast 492 566 33,000  Level FlightAware ADS-B
Sat 01:07:44 AM 8.5510 -75.1910 137° Southeast 493 567 33,000  Level FlightAware ADS-B
Sat 01:08:19 AM 8.4930 -75.1380 138° Southeast 492 566 33,000  Level FlightAware ADS-B
Sat 01:08:54 AM 8.4340 -75.0840 138° Southeast 492 566 33,000  Level FlightAware ADS-B
Sat 01:09:24 AM 8.3760 -75.0460 147° Southeast 490 564 33,000  Level FlightAware ADS-B
Sat 01:10:04 AM 8.2940 -75.0030 153° Southeast 487 560 33,000  Level FlightAware ADS-B
Sat 01:10:39 AM 8.2240 -74.9670 153° Southeast 488 562 33,000  Level FlightAware ADS-B
Sat 01:11:10 AM 8.1620 -74.9360 154° Southeast 488 562 33,000  Level FlightAware ADS-B
Sat 01:11:49 AM 8.0830 -74.8940 152° Southeast 487 560 33,000  Level FlightAware ADS-B
Sat 01:12:24 AM 8.0150 -74.8560 151° Southeast 486 559 33,000  Level FlightAware ADS-B
Sat 01:12:59 AM 7.9440 -74.8170 151° Southeast 488 562 33,000  Level FlightAware ADS-B
Sat 01:13:34 AM 7.8760 -74.7770 150° Southeast 490 564 33,000  Level FlightAware ADS-B
Sat 01:14:04 AM 7.8240 -74.7360 142° Southeast 492 566 33,000  Level FlightAware ADS-B
Sat 01:14:24 AM 7.7950 -74.6980 128° Southeast 497 572 33,000  Level FlightAware ADS-B
Sat 01:14:44 AM 7.7750 -74.6550 115° Southeast 501 577 33,000  Level FlightAware ADS-B
Sat 01:15:19 AM 7.7520 -74.5790 107° East 500 575 33,000  Level FlightAware ADS-B
Sat 01:15:54 AM 7.7360 -74.4970 101° East 500 575 33,000  Level FlightAware ADS-B
Sat 01:16:29 AM 7.7190 -74.4190 102° East 501 577 33,000  Level FlightAware ADS-B
Sat 01:17:04 AM 7.7020 -74.3380 102° East 503 579 33,000  Level FlightAware ADS-B
Sat 01:17:39 AM 7.6850 -74.2570 102° East 506 582 33,000  Level FlightAware ADS-B
Sat 01:18:14 AM 7.6680 -74.1770 102° East 507 583 33,000  Level FlightAware ADS-B
Sat 01:18:49 AM 7.6510 -74.0970 102° East 508 585 33,000  Level FlightAware ADS-B
Sat 01:19:24 AM 7.6350 -74.0180 102° East 503 579 33,000  Level FlightAware ADS-B
Sat 01:19:59 AM 7.6170 -73.9400 103° East 492 566 33,000  Level FlightAware ADS-B
Sat 01:20:34 AM 7.6000 -73.8600 102° East 492 566 33,000  Level FlightAware ADS-B
Sat 01:21:09 AM 7.5820 -73.7810 103° East 493 567 33,000  Level FlightAware ADS-B
Sat 01:21:44 AM 7.5640 -73.7020 103° East 495 570 33,000  Level FlightAware ADS-B
Sat 01:22:19 AM 7.5480 -73.6280 102° East 497 572 33,000  Level FlightAware ADS-B
Sat 01:23:04 AM 7.5240 -73.5210 103° East 499 574 33,000  Level FlightAware ADS-B
Sat 01:23:39 AM 7.5060 -73.4410 103° East 497 572 33,000  Level FlightAware ADS-B
Sat 01:24:19 AM 7.4880 -73.3530 102° East 496 571 33,000  Level FlightAware ADS-B
Sat 01:25:01 AM 7.4700 -73.2750 103° East 496 571 33,000  Level FlightAware ADS-B
Sat 01:25:37 AM 7.4540 -73.2060 103° East 496 571 33,000  Level FlightAware ADS-B
Sat 01:26:13 AM 7.4380 -73.1370 103° East 496 571 33,000  Level FlightAware ADS-B
Sat 01:26:49 AM 7.4220 -73.0680 103° East 496 571 33,000  Level FlightAware ADS-B
Sat 01:27:26 AM 7.4060 -72.9970 103° East 496 571 33,000  Level FlightAware ADS-B
Sat 01:28:03 AM 7.3900 -72.9260 103° East 496 571 33,000  Level FlightAware ADS-B
Sat 01:28:39 AM 7.3740 -72.8570 103° East 496 571 33,000  Level FlightAware ADS-B
Sat 01:29:15 AM 7.3580 -72.7880 103° East 496 571 33,000  Level FlightAware ADS-B
Sat 01:29:51 AM 7.3420 -72.7190 103° East 496 571 33,000  Level FlightAware ADS-B
Sat 01:30:27 AM 7.3270 -72.6500 102° East 496 571 33,000  Level FlightAware ADS-B
Sat 01:31:03 AM 7.3110 -72.5810 103° East 496 571 33,000  Level FlightAware ADS-B
Sat 01:31:40 AM 7.2950 -72.5110 103° East 496 571 33,000  Level FlightAware ADS-B
Sat 01:32:16 AM 7.2790 -72.4420 103° East 496 571 33,000  Level FlightAware ADS-B
Sat 01:32:52 AM 7.2630 -72.3730 103° East 496 571 33,000  Level FlightAware ADS-B
Sat 01:33:28 AM 7.2470 -72.3040 103° East 496 571 33,000  Level FlightAware ADS-B
Sat 01:34:05 AM 7.2310 -72.2330 103° East 496 571 33,000 17 Level FlightAware ADS-B
Sat 01:36:00 AM 7.0322 -72.0728 141° Southeast  Level Estimated
Sat 01:37:00 AM 6.9285 -71.9893 141° Southeast  Level Estimated
Sat 01:38:00 AM 6.8247 -71.9058 141° Southeast  Level Estimated
Sat 01:39:00 AM 6.7210 -71.8223 141° Southeast  Level Estimated
Sat 01:40:00 AM 6.6172 -71.7389 141° Southeast  Level Estimated
Sat 01:41:00 AM 6.5134 -71.6555 141° Southeast  Level Estimated
Sat 01:42:00 AM 6.4096 -71.5722 141° Southeast  Level Estimated
Sat 01:43:00 AM 6.3058 -71.4888 141° Southeast  Level Estimated
Sat 01:44:00 AM 6.2020 -71.4055 141° Southeast  Level Estimated
Sat 01:45:00 AM 6.0981 -71.3223 141° Southeast  Level Estimated
Sat 01:46:00 AM 5.9943 -71.2391 141° Southeast  Level Estimated
Sat 01:47:00 AM 5.8904 -71.1559 141° Southeast  Level Estimated
Sat 01:48:00 AM 5.7865 -71.0727 141° Southeast  Level Estimated
Sat 01:49:00 AM 5.6827 -70.9896 141° Southeast  Level Estimated
Sat 01:50:00 AM 5.5788 -70.9065 141° Southeast  Level Estimated
Sat 01:51:00 AM 5.4748 -70.8234 141° Southeast  Level Estimated
Sat 01:52:00 AM 5.3709 -70.7404 141° Southeast  Level Estimated
Sat 01:53:00 AM 5.2670 -70.6574 142° Southeast  Level Estimated
Sat 01:54:00 AM 5.1630 -70.5744 142° Southeast  Level Estimated
Sat 01:55:00 AM 5.0591 -70.4914 142° Southeast  Level Estimated
Sat 01:56:00 AM 4.9551 -70.4085 142° Southeast  Level Estimated
Sat 01:57:00 AM 4.8511 -70.3256 142° Southeast  Level Estimated
Sat 01:58:00 AM 4.7471 -70.2427 142° Southeast  Level Estimated
Sat 01:59:00 AM 4.6431 -70.1599 142° Southeast  Level Estimated
Sat 02:00:00 AM 4.5391 -70.0770 142° Southeast  Level Estimated
Sat 02:01:00 AM 4.4351 -69.9942 142° Southeast  Level Estimated
Sat 02:02:00 AM 4.3311 -69.9115 142° Southeast  Level Estimated
Sat 02:03:00 AM 4.2270 -69.8287 142° Southeast  Level Estimated
Sat 02:04:00 AM 4.1230 -69.7460 142° Southeast  Level Estimated
Sat 02:05:00 AM 4.0189 -69.6633 142° Southeast  Level Estimated
Sat 02:06:00 AM 3.9149 -69.5806 142° Southeast  Level Estimated
Sat 02:07:00 AM 3.8108 -69.4979 142° Southeast  Level Estimated
Sat 02:08:00 AM 3.7067 -69.4152 142° Southeast  Level Estimated
Sat 02:09:00 AM 3.6026 -69.3326 142° Southeast  Level Estimated
Sat 02:10:00 AM 3.4985 -69.2500 142° Southeast  Level Estimated
Sat 02:11:00 AM 3.3944 -69.1674 142° Southeast  Level Estimated
Sat 02:12:00 AM 3.2903 -69.0848 142° Southeast  Level Estimated
Sat 02:13:00 AM 3.1862 -69.0023 142° Southeast  Level Estimated
Sat 02:14:00 AM 3.0821 -68.9197 142° Southeast  Level Estimated
Sat 02:15:00 AM 2.9780 -68.8372 142° Southeast  Level Estimated
Sat 02:16:00 AM 2.8742 -68.7550 142° Southeast  Level Estimated
Sat 02:17:00 AM 2.7704 -68.6728 142° Southeast  Level Estimated
Sat 02:18:00 AM 2.6667 -68.5906 142° Southeast  Level Estimated
Sat 02:19:00 AM 2.5629 -68.5084 142° Southeast  Level Estimated
Sat 02:20:00 AM 2.4591 -68.4262 142° Southeast  Level Estimated
Sat 02:21:00 AM 2.3553 -68.3441 142° Southeast  Level Estimated
Sat 02:22:00 AM 2.2515 -68.2619 142° Southeast  Level Estimated
Sat 02:23:00 AM 2.1477 -68.1798 142° Southeast  Level Estimated
Sat 02:24:00 AM 2.0439 -68.0977 142° Southeast  Level Estimated
Sat 02:25:00 AM 1.9401 -68.0156 142° Southeast  Level Estimated
Sat 02:26:00 AM 1.8363 -67.9335 142° Southeast  Level Estimated
Sat 02:27:00 AM 1.7324 -67.8514 142° Southeast  Level Estimated
Sat 02:28:00 AM 1.6286 -67.7694 142° Southeast  Level Estimated
Sat 02:29:00 AM 1.5248 -67.6873 142° Southeast  Level Estimated
Sat 02:30:00 AM 1.4210 -67.6052 142° Southeast  Level Estimated
Sat 02:31:00 AM 1.3171 -67.5232 142° Southeast  Level Estimated
Sat 02:32:00 AM 1.2133 -67.4411 142° Southeast  Level Estimated
Sat 02:33:00 AM 1.1095 -67.3591 142° Southeast  Level Estimated
Sat 02:34:00 AM 1.0056 -67.2771 142° Southeast  Level Estimated
Sat 02:35:00 AM 0.9018 -67.1950 142° Southeast  Level Estimated
Sat 02:36:00 AM 0.7980 -67.1130 142° Southeast  Level Estimated
Sat 02:37:00 AM 0.6941 -67.0310 142° Southeast  Level Estimated
Sat 02:38:00 AM 0.5903 -66.9490 142° Southeast  Level Estimated
Sat 02:39:00 AM 0.4864 -66.8670 142° Southeast  Level Estimated
Sat 02:40:00 AM 0.3826 -66.7850 142° Southeast  Level Estimated
Sat 02:41:00 AM 0.2787 -66.7029 142° Southeast  Level Estimated
Sat 02:42:00 AM 0.1749 -66.6209 142° Southeast  Level Estimated
Sat 02:43:00 AM 0.0710 -66.5389 142° Southeast  Level Estimated
Sat 02:44:00 AM -0.0328 -66.4569 142° Southeast  Level Estimated
Sat 02:45:00 AM -0.1367 -66.3749 142° Southeast  Level Estimated
Sat 02:46:00 AM -0.2405 -66.2929 142° Southeast  Level Estimated
Sat 02:47:00 AM -0.3444 -66.2109 142° Southeast  Level Estimated
Sat 02:48:00 AM -0.4482 -66.1289 142° Southeast  Level Estimated
Sat 02:49:00 AM -0.5521 -66.0469 142° Southeast  Level Estimated
Sat 02:50:00 AM -0.6559 -65.9649 142° Southeast  Level Estimated
Sat 02:51:00 AM -0.7598 -65.8828 142° Southeast  Level Estimated
Sat 02:52:00 AM -0.8636 -65.8008 142° Southeast  Level Estimated
Sat 02:53:00 AM -0.9675 -65.7188 142° Southeast  Level Estimated
Sat 02:54:00 AM -1.0713 -65.6367 142° Southeast  Level Estimated
Sat 02:55:00 AM -1.1751 -65.5547 142° Southeast  Level Estimated
Sat 02:56:00 AM -1.2790 -65.4727 142° Southeast  Level Estimated
Sat 02:57:00 AM -1.3828 -65.3906 142° Southeast  Level Estimated
Sat 02:58:00 AM -1.4866 -65.3086 142° Southeast  Level Estimated
Sat 02:59:00 AM -1.5905 -65.2265 142° Southeast  Level Estimated
Sat 03:00:00 AM -1.6943 -65.1444 142° Southeast  Level Estimated
Sat 03:01:00 AM -1.7981 -65.0623 142° Southeast  Level Estimated
Sat 03:02:00 AM -1.9019 -64.9803 142° Southeast  Level Estimated
Sat 03:03:00 AM -2.0057 -64.8982 142° Southeast  Level Estimated
Sat 03:04:00 AM -2.1097 -64.8159 142° Southeast  Level Estimated
Sat 03:05:00 AM -2.2137 -64.7336 142° Southeast  Level Estimated
Sat 03:06:00 AM -2.3177 -64.6514 142° Southeast  Level Estimated
Sat 03:07:00 AM -2.4217 -64.5691 142° Southeast  Level Estimated
Sat 03:08:00 AM -2.5256 -64.4868 142° Southeast  Level Estimated
Sat 03:09:00 AM -2.6296 -64.4044 142° Southeast  Level Estimated
Sat 03:10:00 AM -2.7336 -64.3221 142° Southeast  Level Estimated
Sat 03:11:00 AM -2.8375 -64.2398 142° Southeast  Level Estimated
Sat 03:12:00 AM -2.9415 -64.1574 142° Southeast  Level Estimated
Sat 03:13:00 AM -3.0454 -64.0750 142° Southeast  Level Estimated
Sat 03:14:00 AM -3.1494 -63.9926 142° Southeast  Level Estimated
Sat 03:15:00 AM -3.2533 -63.9102 142° Southeast  Level Estimated
Sat 03:16:00 AM -3.3572 -63.8278 142° Southeast  Level Estimated
Sat 03:17:00 AM -3.4611 -63.7454 142° Southeast  Level Estimated
Sat 03:18:00 AM -3.5651 -63.6629 142° Southeast  Level Estimated
Sat 03:19:00 AM -3.6690 -63.5804 142° Southeast  Level Estimated
Sat 03:20:00 AM -3.7729 -63.4979 142° Southeast  Level Estimated
Sat 03:21:00 AM -3.8767 -63.4154 142° Southeast  Level Estimated
Sat 03:22:00 AM -3.9806 -63.3329 142° Southeast  Level Estimated
Sat 03:23:00 AM -4.0845 -63.2503 142° Southeast  Level Estimated
Sat 03:24:00 AM -4.1884 -63.1677 142° Southeast  Level Estimated
Sat 03:25:00 AM -4.2922 -63.0851 142° Southeast  Level Estimated
Sat 03:26:00 AM -4.3961 -63.0025 142° Southeast  Level Estimated
Sat 03:27:00 AM -4.4999 -62.9198 142° Southeast  Level Estimated
Sat 03:28:00 AM -4.6037 -62.8372 142° Southeast  Level Estimated
Sat 03:29:00 AM -4.7076 -62.7545 142° Southeast  Level Estimated
Sat 03:30:00 AM -4.8114 -62.6718 142° Southeast  Level Estimated
Sat 03:31:00 AM -4.9152 -62.5890 142° Southeast  Level Estimated
Sat 03:32:00 AM -5.0190 -62.5062 142° Southeast  Level Estimated
Sat 03:33:00 AM -5.1227 -62.4234 142° Southeast  Level Estimated
Sat 03:34:00 AM -5.2265 -62.3406 142° Southeast  Level Estimated
Sat 03:35:00 AM -5.3306 -62.2575 142° Southeast  Level Estimated
Sat 03:36:00 AM -5.4348 -62.1743 142° Southeast  Level Estimated
Sat 03:37:00 AM -5.5389 -62.0911 141° Southeast  Level Estimated
Sat 03:38:00 AM -5.6430 -62.0079 141° Southeast  Level Estimated
Sat 03:39:00 AM -5.7470 -61.9246 141° Southeast  Level Estimated
Sat 03:40:00 AM -5.8511 -61.8413 141° Southeast  Level Estimated
Sat 03:41:00 AM -5.9552 -61.7580 141° Southeast  Level Estimated
Sat 03:42:00 AM -6.0592 -61.6746 141° Southeast  Level Estimated
Sat 03:43:00 AM -6.1632 -61.5912 141° Southeast  Level Estimated
Sat 03:44:00 AM -6.2673 -61.5078 141° Southeast  Level Estimated
Sat 03:45:00 AM -6.3713 -61.4244 141° Southeast  Level Estimated
Sat 03:46:00 AM -6.4752 -61.3409 141° Southeast  Level Estimated
Sat 03:47:00 AM -6.5792 -61.2574 141° Southeast  Level Estimated
Sat 03:48:00 AM -6.6832 -61.1738 141° Southeast  Level Estimated
Sat 03:49:00 AM -6.7871 -61.0902 141° Southeast  Level Estimated
Sat 03:50:00 AM -6.8911 -61.0066 141° Southeast  Level Estimated
Sat 03:51:00 AM -6.9950 -60.9229 141° Southeast  Level Estimated
Sat 03:52:00 AM -7.0987 -60.8394 141° Southeast  Level Estimated
Sat 03:53:00 AM -7.2024 -60.7558 141° Southeast  Level Estimated
Sat 03:54:00 AM -7.3061 -60.6721 141° Southeast  Level Estimated
Sat 03:55:00 AM -7.4098 -60.5885 141° Southeast  Level Estimated
Sat 03:56:00 AM -7.5135 -60.5047 141° Southeast  Level Estimated
Sat 03:57:00 AM -7.6171 -60.4210 141° Southeast  Level Estimated
Sat 03:58:00 AM -7.7207 -60.3372 141° Southeast  Level Estimated
Sat 03:59:00 AM -7.8243 -60.2534 141° Southeast  Level Estimated
Sat 04:00:00 AM -7.9279 -60.1695 141° Southeast  Level Estimated
Sat 04:01:00 AM -8.0315 -60.0856 141° Southeast  Level Estimated
Sat 04:02:00 AM -8.1351 -60.0016 141° Southeast  Level Estimated
Sat 04:03:00 AM -8.2386 -59.9176 141° Southeast  Level Estimated
Sat 04:04:00 AM -8.3421 -59.8336 141° Southeast  Level Estimated
Sat 04:05:00 AM -8.4457 -59.7495 141° Southeast  Level Estimated
Sat 04:06:00 AM -8.5491 -59.6654 141° Southeast  Level Estimated
Sat 04:07:00 AM -8.6526 -59.5812 141° Southeast  Level Estimated
Sat 04:08:00 AM -8.7561 -59.4970 141° Southeast  Level Estimated
Sat 04:09:00 AM -8.8595 -59.4127 141° Southeast  Level Estimated
Sat 04:10:00 AM -8.9629 -59.3284 141° Southeast  Level Estimated
Sat 04:11:00 AM -9.0663 -59.2440 141° Southeast  Level Estimated
Sat 04:12:00 AM -9.1699 -59.1594 141° Southeast  Level Estimated
Sat 04:13:00 AM -9.2734 -59.0748 141° Southeast  Level Estimated
Sat 04:14:00 AM -9.3769 -58.9902 141° Southeast  Level Estimated
Sat 04:15:00 AM -9.4804 -58.9054 141° Southeast  Level Estimated
Sat 04:16:00 AM -9.5839 -58.8207 141° Southeast  Level Estimated
Sat 04:17:00 AM -9.6874 -58.7358 141° Southeast  Level Estimated
Sat 04:18:00 AM -9.7908 -58.6510 141° Southeast  Level Estimated
Sat 04:19:00 AM -9.8942 -58.5660 141° Southeast  Level Estimated
Sat 04:20:00 AM -9.9976 -58.4811 141° Southeast  Level Estimated
Sat 04:21:00 AM -10.1010 -58.3960 141° Southeast  Level Estimated
Sat 04:22:00 AM -10.2044 -58.3109 141° Southeast  Level Estimated
Sat 04:23:00 AM -10.3077 -58.2258 141° Southeast  Level Estimated
Sat 04:24:00 AM -10.4110 -58.1406 141° Southeast  Level Estimated
Sat 04:25:00 AM -10.5143 -58.0553 141° Southeast  Level Estimated
Sat 04:26:00 AM -10.6176 -57.9700 141° Southeast  Level Estimated
Sat 04:27:00 AM -10.7208 -57.8847 141° Southeast  Level Estimated
Sat 04:28:00 AM -10.8240 -57.7992 141° Southeast  Level Estimated
Sat 04:29:00 AM -10.9272 -57.7137 141° Southeast  Level Estimated
Sat 04:30:00 AM -11.0304 -57.6282 141° Southeast  Level Estimated
Sat 04:31:00 AM -11.1336 -57.5426 141° Southeast  Level Estimated
Sat 04:32:00 AM -11.2367 -57.4569 141° Southeast  Level Estimated
Sat 04:33:00 AM -11.3398 -57.3712 141° Southeast  Level Estimated
Sat 04:34:00 AM -11.4429 -57.2854 141° Southeast  Level Estimated
Sat 04:35:00 AM -11.5459 -57.1995 141° Southeast  Level Estimated
Sat 04:36:00 AM -11.6489 -57.1136 141° Southeast  Level Estimated
Sat 04:37:00 AM -11.7519 -57.0276 141° Southeast  Level Estimated
Sat 04:38:00 AM -11.8549 -56.9416 141° Southeast  Level Estimated
Sat 04:39:00 AM -11.9579 -56.8555 141° Southeast  Level Estimated
Sat 04:40:00 AM -12.0608 -56.7693 141° Southeast  Level Estimated
Sat 04:41:00 AM -12.1637 -56.6831 141° Southeast  Level Estimated
Sat 04:42:00 AM -12.2665 -56.5968 141° Southeast  Level Estimated
Sat 04:43:00 AM -12.3694 -56.5104 141° Southeast  Level Estimated
Sat 04:44:00 AM -12.4722 -56.4240 141° Southeast  Level Estimated
Sat 04:45:00 AM -12.5750 -56.3374 141° Southeast  Level Estimated
Sat 04:46:00 AM -12.6777 -56.2509 141° Southeast  Level Estimated
Sat 04:47:00 AM -12.7805 -56.1642 141° Southeast  Level Estimated
Sat 04:48:00 AM -12.8832 -56.0775 141° Southeast  Level Estimated
Sat 04:49:00 AM -12.9858 -55.9907 141° Southeast  Level Estimated
Sat 04:50:00 AM -13.0885 -55.9039 141° Southeast  Level Estimated
Sat 04:51:00 AM -13.1911 -55.8169 140° Southeast  Level Estimated
Sat 04:52:00 AM -13.2937 -55.7299 140° Southeast  Level Estimated
Sat 04:53:00 AM -13.3962 -55.6428 140° Southeast  Level Estimated
Sat 04:54:00 AM -13.4988 -55.5557 140° Southeast  Level Estimated
Sat 04:55:00 AM -13.6013 -55.4684 140° Southeast  Level Estimated
Sat 04:56:00 AM -13.7037 -55.3811 140° Southeast  Level Estimated
Sat 04:57:00 AM -13.8062 -55.2937 140° Southeast  Level Estimated
Sat 04:58:00 AM -13.9086 -55.2063 140° Southeast  Level Estimated
Sat 04:59:00 AM -14.0110 -55.1187 140° Southeast  Level Estimated
Sat 05:00:00 AM -14.1133 -55.0311 140° Southeast  Level Estimated
Sat 05:01:00 AM -14.2156 -54.9434 140° Southeast  Level Estimated
Sat 05:02:00 AM -14.3179 -54.8557 140° Southeast  Level Estimated
Sat 05:03:00 AM -14.4201 -54.7678 140° Southeast  Level Estimated
Sat 05:04:00 AM -14.5223 -54.6799 140° Southeast  Level Estimated
Sat 05:05:00 AM -14.6245 -54.5919 140° Southeast  Level Estimated
Sat 05:06:00 AM -14.7267 -54.5037 140° Southeast  Level Estimated
Sat 05:07:00 AM -14.8288 -54.4156 140° Southeast  Level Estimated
Sat 05:08:00 AM -14.9309 -54.3273 140° Southeast  Level Estimated
Sat 05:09:00 AM -15.0329 -54.2390 140° Southeast  Level Estimated
Sat 05:10:00 AM -15.1349 -54.1505 140° Southeast  Level Estimated
Sat 05:11:00 AM -15.2369 -54.0620 140° Southeast  Level Estimated
Sat 05:12:00 AM -15.3388 -53.9734 140° Southeast  Level Estimated
Sat 05:13:00 AM -15.4408 -53.8847 140° Southeast  Level Estimated
Sat 05:14:00 AM -15.5426 -53.7959 140° Southeast  Level Estimated
Sat 05:15:00 AM -15.6445 -53.7071 140° Southeast  Level Estimated
Sat 05:16:00 AM -15.7463 -53.6181 140° Southeast  Level Estimated
Sat 05:17:00 AM -15.8480 -53.5291 140° Southeast  Level Estimated
Sat 05:18:00 AM -15.9498 -53.4399 140° Southeast  Level Estimated
Sat 05:19:00 AM -16.0515 -53.3507 140° Southeast  Level Estimated
Sat 05:20:00 AM -16.1531 -53.2614 140° Southeast  Level Estimated
Sat 05:21:00 AM -16.2547 -53.1720 140° Southeast  Level Estimated
Sat 05:22:00 AM -16.3563 -53.0825 140° Southeast  Level Estimated
Sat 05:23:00 AM -16.4578 -52.9929 140° Southeast  Level Estimated
Sat 05:24:00 AM -16.5594 -52.9032 140° Southeast  Level Estimated
Sat 05:25:00 AM -16.6608 -52.8134 140° Southeast  Level Estimated
Sat 05:26:00 AM -16.7623 -52.7236 140° Southeast  Level Estimated
Sat 05:27:00 AM -16.8636 -52.6336 140° Southeast  Level Estimated
Sat 05:28:00 AM -16.9650 -52.5435 140° Southeast  Level Estimated
Sat 05:29:00 AM -17.0663 -52.4534 140° Southeast  Level Estimated
Sat 05:30:00 AM -17.1676 -52.3631 140° Southeast  Level Estimated
Sat 05:31:00 AM -17.2688 -52.2728 140° Southeast  Level Estimated
Sat 05:31:42 AM -18.7610 -50.9310 140° Southeast 516 594 37,000  Level FlightAware ADS-B
Sat 05:32:00 AM -17.3700 -52.1823 140° Southeast  Level Estimated
Sat 05:32:19 AM -18.8130 -50.8740 134° Southeast 516 594 37,000  Level FlightAware ADS-B
Sat 05:33:07 AM -18.8980 -50.7820 134° Southeast 516 594 37,000  Level FlightAware ADS-B
Sat 05:33:44 AM -18.9500 -50.7250 134° Southeast 516 594 37,000  Level FlightAware ADS-B
Sat 05:34:18 AM -19.0230 -50.6460 134° Southeast 520 598 37,000  Level FlightAware ADS-B
Sat 05:34:51 AM -19.0770 -50.5870 134° Southeast 521 600 37,000  Level FlightAware ADS-B
Sat 05:35:27 AM -19.1380 -50.5200 134° Southeast 522 601 37,000  Level FlightAware ADS-B
Sat 05:36:03 AM -19.1980 -50.4540 134° Southeast 522 601 37,000  Level FlightAware ADS-B
Sat 05:36:35 AM -19.2530 -50.3940 134° Southeast 522 601 37,000  Level FlightAware ADS-B
Sat 05:37:13 AM -19.3160 -50.3250 134° Southeast 524 603 37,000  Level FlightAware ADS-B
Sat 05:37:47 AM -19.3740 -50.2610 134° Southeast 525 604 37,000  Level FlightAware ADS-B
Sat 05:38:21 AM -19.4320 -50.1980 134° Southeast 525 604 37,000  Level FlightAware ADS-B
Sat 05:38:57 AM -19.4920 -50.1320 134° Southeast 525 604 37,000  Level FlightAware ADS-B
Sat 05:39:33 AM -19.5520 -50.0650 134° Southeast 524 603 37,000  Level FlightAware ADS-B
Sat 05:40:05 AM -19.6050 -50.0070 134° Southeast 523 602 37,000  Level FlightAware ADS-B
Sat 05:40:40 AM -19.6640 -49.9430 134° Southeast 522 601 37,000  Level FlightAware ADS-B
Sat 05:41:15 AM -19.7250 -49.8760 134° Southeast 522 601 37,000  Level FlightAware ADS-B
Sat 05:41:53 AM -19.7860 -49.8100 134° Southeast 522 601 37,000  Level FlightAware ADS-B
Sat 05:42:25 AM -19.8410 -49.7490 134° Southeast 522 601 37,000  Level FlightAware ADS-B
Sat 05:43:02 AM -19.9000 -49.6840 134° Southeast 523 602 37,000  Level FlightAware ADS-B
Sat 05:43:37 AM -19.9640 -49.6150 135° Southeast 522 601 37,000  Level FlightAware ADS-B
Sat 05:44:11 AM -20.0210 -49.5520 134° Southeast 522 601 37,000  Level FlightAware ADS-B
Sat 05:44:46 AM -20.0750 -49.4930 134° Southeast 523 602 37,000  Level FlightAware ADS-B
Sat 05:45:23 AM -20.1410 -49.4200 134° Southeast 523 602 37,000  Level FlightAware ADS-B
Sat 05:45:59 AM -20.1990 -49.3560 134° Southeast 522 601 37,000  Level FlightAware ADS-B
Sat 05:46:31 AM -20.2530 -49.2960 134° Southeast 521 600 37,000  Level FlightAware ADS-B
Sat 05:47:07 AM -20.3140 -49.2290 134° Southeast 522 601 37,000  Level FlightAware ADS-B
Sat 05:47:43 AM -20.3730 -49.1640 134° Southeast 522 601 37,000  Level FlightAware ADS-B
Sat 05:48:19 AM -20.4340 -49.0970 134° Southeast 522 601 37,000  Level FlightAware ADS-B
Sat 05:48:53 AM -20.4910 -49.0330 134° Southeast 523 602 37,000  Level FlightAware ADS-B
Sat 05:49:27 AM -20.5490 -48.9690 134° Southeast 522 601 37,000  Level FlightAware ADS-B
Sat 05:50:04 AM -20.6100 -48.9000 133° Southeast 523 602 37,000  Level FlightAware ADS-B
Sat 05:50:36 AM -20.6630 -48.8420 134° Southeast 521 600 37,000  Level FlightAware ADS-B
Sat 05:51:11 AM -20.7220 -48.7760 134° Southeast 521 600 37,000  Level FlightAware ADS-B
Sat 05:51:47 AM -20.7840 -48.7070 134° Southeast 519 597 37,000  Level FlightAware ADS-B
Sat 05:52:25 AM -20.8450 -48.6380 133° Southeast 519 597 37,000  Level FlightAware ADS-B
Sat 05:52:57 AM -20.8980 -48.5790 134° Southeast 519 597 37,000  Level FlightAware ADS-B
Sat 05:53:33 AM -20.9580 -48.5110 133° Southeast 520 598 37,000  Level FlightAware ADS-B
Sat 05:54:05 AM -21.0120 -48.4510 134° Southeast 521 600 37,000  Level FlightAware ADS-B
Sat 05:54:40 AM -21.0700 -48.3850 133° Southeast 522 601 37,000  Level FlightAware ADS-B
Sat 05:55:17 AM -21.1340 -48.3130 134° Southeast 521 600 37,000  Level FlightAware ADS-B
Sat 05:55:53 AM -21.1930 -48.2460 133° Southeast 522 601 37,000  Level FlightAware ADS-B
Sat 05:56:28 AM -21.2510 -48.1810 134° Southeast 522 601 37,000  Level FlightAware ADS-B
Sat 05:57:00 AM -21.3050 -48.1190 133° Southeast 523 602 37,000  Level FlightAware ADS-B
Sat 05:57:36 AM -21.3650 -48.0520 134° Southeast 524 603 37,000  Level FlightAware ADS-B
Sat 05:58:12 AM -21.4250 -47.9840 133° Southeast 523 602 37,000  Level FlightAware ADS-B
Sat 05:58:45 AM -21.4790 -47.9220 133° Southeast 523 602 37,000  Level FlightAware ADS-B
Sat 05:59:21 AM -21.5390 -47.8540 133° Southeast 522 601 37,000  Level FlightAware ADS-B
Sat 05:59:58 AM -21.6010 -47.7840 134° Southeast 523 602 37,000  Level FlightAware ADS-B
Sat 06:00:30 AM -21.6550 -47.7230 134° Southeast 524 603 37,000  Level FlightAware ADS-B
Sat 06:01:07 AM -21.7160 -47.6530 133° Southeast 524 603 37,000  Level FlightAware ADS-B
Sat 06:01:42 AM -21.7760 -47.5900 136° Southeast 520 598 37,000 -435 Level FlightAware ADS-B
Sat 06:02:16 AM -21.8410 -47.5370 143° Southeast 512 589 36,500 -1,941 Descending FlightAware ADS-B
Sat 06:02:50 AM -21.9110 -47.4940 150° Southeast 510 587 34,800 -3,465 Descending FlightAware ADS-B
Sat 06:03:27 AM -21.9880 -47.4490 152° Southeast 527 606 32,400 -3,600 Descending FlightAware ADS-B
Sat 06:04:00 AM -22.0600 -47.4060 151° Southeast 530 610 30,600 -2,522 Descending FlightAware ADS-B
Sat 06:04:36 AM -22.1370 -47.3600 151° Southeast 514 592 29,500 -2,083 Descending FlightAware ADS-B
Sat 06:05:12 AM -22.2110 -47.3160 151° Southeast 507 583 28,100 -2,182 Descending FlightAware ADS-B
Sat 06:05:42 AM -22.2710 -47.2810 152° Southeast 498 573 27,100 -2,000 Descending FlightAware ADS-B
Sat 06:06:21 AM -22.3490 -47.2340 151° Southeast 485 558 25,800 -2,000 Descending FlightAware ADS-B
Sat 06:06:57 AM -22.4180 -47.1930 151° Southeast 475 547 24,600 -1,917 Descending FlightAware ADS-B
Sat 06:07:33 AM -22.4890 -47.1500 151° Southeast 461 531 23,500 -2,083 Descending FlightAware ADS-B
Sat 06:08:09 AM -22.5510 -47.1140 152° Southeast 449 517 22,100 -2,471 Descending FlightAware ADS-B
Sat 06:08:41 AM -22.6120 -47.0830 155° Southeast 441 507 20,700 -2,647 Descending FlightAware ADS-B
Sat 06:09:17 AM -22.6800 -47.0540 159° South 434 499 19,100 -2,657 Descending FlightAware ADS-B
Sat 06:09:51 AM -22.7450 -47.0270 159° South 427 491 17,600 -2,333 Descending FlightAware ADS-B
Sat 06:10:29 AM -22.8140 -46.9990 159° South 416 479 16,300 -2,143 Descending FlightAware ADS-B
Sat 06:11:01 AM -22.8700 -46.9750 158° South 414 476 15,100 -2,273 Descending FlightAware ADS-B
Sat 06:11:35 AM -22.9320 -46.9480 158° South 412 474 13,800 -2,229 Descending FlightAware ADS-B
Sat 06:12:11 AM -22.9960 -46.9210 159° South 395 455 12,500 -1,541 Descending FlightAware ADS-B
Sat 06:12:49 AM -23.0570 -46.8960 159° South 353 406 11,900 -1,457 Descending FlightAware ADS-B
Sat 06:13:21 AM -23.1030 -46.8770 159° South 325 374 10,800 -1,588 Descending FlightAware ADS-B
Sat 06:13:57 AM -23.1500 -46.8570 159° South 281 323 10,100 -1,174 Descending FlightAware ADS-B
Sat 06:14:07 AM -23.1620 -46.8520 159° South 273 314 9,900 -1,167 Descending FlightAware ADS-B
Sat 06:14:33 AM -23.1910 -46.8390 158° South 251 289 9,400 -1,304 Descending FlightAware ADS-B
Sat 06:14:53 AM -23.2130 -46.8300 159° South 249 287 8,900 -1,200 Descending FlightAware ADS-B
Sat 06:15:13 AM -23.2340 -46.8210 159° South 247 284 8,600 -900 Descending FlightAware ADS-B
Sat 06:15:33 AM -23.2560 -46.8120 159° South 238 274 8,300 -750 Descending FlightAware ADS-B
Sat 06:15:53 AM -23.2750 -46.8040 159° South 230 265 8,100 -913 Descending FlightAware ADS-B
Sat 06:16:19 AM -23.3010 -46.7930 159° South 226 260 7,600 -1,174 Descending FlightAware ADS-B
Sat 06:16:39 AM -23.3210 -46.7850 160° South 228 262 7,200 -1,050 Descending FlightAware ADS-B
Sat 06:16:59 AM -23.3400 -46.7760 156° South 228 262 6,900 -300 Descending FlightAware ADS-B
Sat 06:17:19 AM -23.3600 -46.7680 160° South 228 262 7,000 -360 Climbing FlightAware ADS-B
Sat 06:17:49 AM -23.3870 -46.7510 150° Southeast 222 255 6,600 -783 Descending FlightAware ADS-B
Sat 06:18:05 AM -23.3990 -46.7390 137° Southeast 221 254 6,400 -1,000 Descending FlightAware ADS-B
Sat 06:18:31 AM -23.4190 -46.7190 137° Southeast 218 251 5,900 -1,091 Descending FlightAware ADS-B
Sat 06:18:49 AM -23.4330 -46.7060 140° Southeast 225 259 5,600 -667 Descending FlightAware ADS-B
Sat 06:19:07 AM -23.4460 -46.6910 133° Southeast 228 262 5,500 -400 Descending FlightAware ADS-B
Sat 06:19:19 AM -23.4530 -46.6810 127° Southeast 220 253 5,400 -938 Descending FlightAware ADS-B
Sat 06:19:39 AM -23.4620 -46.6600 115° Southeast 211 243 5,000 -955 Descending FlightAware ADS-B
Sat 06:20:03 AM -23.4710 -46.6390 115° Southeast 194 223 4,700 -811 Descending FlightAware ADS-B
Sat 06:20:16 AM -23.4740 -46.6270 105° East 184 212 4,500 -750 Descending FlightAware ADS-B
Sat 06:20:19 AM -23.4740 -46.6230 90° East 184 212 4,500 -207 Level FlightAware ADS-B
Sat 06:20:45 AM -23.4700 -46.6020 78° East 170 196 4,400 -522 Descending FlightAware ADS-B
Sat 06:21:05 AM -23.4650 -46.5860 71° East 157 181 4,100 -900 Descending FlightAware ADS-B
Sat 06:21:25 AM -23.4610 -46.5710 74° East 146 168 3,800 -882 Descending FlightAware ADS-B
Sat 06:21:39 AM -23.4590 -46.5600 79° East 141 162 3,600 -667 Descending FlightAware ADS-B
Sat 06:22:01 AM -23.4550 -46.5460 73° East 141 162 3,400 -714 Descending FlightAware ADS-B
Sat 06:22:21 AM -23.4510 -46.5330 71° East 144 166 3,100 -811 Descending FlightAware ADS-B
Sat 06:22:38 AM -23.4480 -46.5210 75° East 142 163 2,900 -632 Descending FlightAware ADS-B
Sat 06:22:59 AM -23.4440 -46.5080 71° East 140 161 2,700 -682 Descending FlightAware ADS-B
Sat 06:23:22 AM -23.4400 -46.4910 76° East 138 159 2,400 -783 Descending FlightAware ADS-B
Sat 06:23:42 AM -23.4360 -46.4780 71° East 110 127 -7,200 Descending FlightAware ADS-B
Sat 06:24:14 AM -23.4330 -46.4650 76° East 105 121  Level FlightAware ADS-B

Login

Don't have an account? Register now (free) for customized features, flight alerts, and more!